Información del aeropuerto LEZG

Información de pista
Pista 12L Longitud 9843 ft Anchura 148 ft
Elevación 823 ft Umbral 0 ft Rumbo 120
Pista 30R Longitud 9843 ft Anchura 148 ft
Elevación 834 ft Umbral 0 ft Rumbo 300
Pista 12R Longitud 12198 ft Anchura 148 ft
Elevación 834 ft Umbral 0 ft Rumbo 120
Pista 30L Longitud 12198 ft Anchura 148 ft
Elevación 863 ft Umbral 0 ft Rumbo 300
Frecuencias del aeropuerto
Tipo APP Nombre APP Frecuencia 119.3 MHZ
Tipo GND Nombre GND Frecuencia 118.1 MHZ
Tipo TWR Nombre TWR Frecuencia 118.1 MHZ
Radioayudas del aeropuerto
Tipo VOR-DME Nombre Zaragoza Frecuencia 113000 KHZ
Tipo NDB Nombre Zaragoza Frecuencia 389 KHZ
Tipo TACAN Nombre Zaragoza Frecuencia 133700 KHZ
Tipo NDB Nombre Zaragoza Frecuencia 348 KHZ
Información meteorológica del aeropuerto y NOTAM
ADDS - METARS form results

(0212 UTC 23 January 2022)
Data provider http://aviationweather.gov/metar/data/
 
METAR text: LEZG 230200Z 12005KT CAVOK M01/M04 Q1029
Conditions at: LEZG (ZARAGOZA (MIL/CI, ES) observed 0200 UTC 23 January 2022
Temperature: -1.0°C (30°F)
Dewpoint: -4.0°C (25°F) [RH = 80%]
Pressure (altimeter): 30.38 inches Hg (1029.0 mb)
Winds: from the ESE (120 degrees) at 6 MPH (5 knots; 2.6 m/s)
Visibility: 6 or more miles (10+ km)
Ceiling: ceiling and visibility are OK
Clouds: unknown
Weather: no significant weather observed at this time

METAR text: LEZG 230130Z 10004KT CAVOK M01/M04 Q1029
Conditions at: LEZG (ZARAGOZA (MIL/CI, ES) observed 0130 UTC 23 January 2022
Temperature: -1.0°C (30°F)
Dewpoint: -4.0°C (25°F) [RH = 80%]
Pressure (altimeter): 30.38 inches Hg (1029.0 mb)
Winds: from the E (100 degrees) at 5 MPH (4 knots; 2.1 m/s)
Visibility: 6 or more miles (10+ km)
Ceiling: ceiling and visibility are OK
Clouds: unknown
Weather: no significant weather observed at this time

Forecast for: LEZG (ZARAGOZA (MIL/CI, ES)
Text: TAF LEZG 222300Z 2300/2324 VRB03KT CAVOK TX10/2313Z TNM02/2306Z
Forecast period: 0000 UTC 23 January 2022 to 0000 UTC 24 January 2022
Forecast type: FROM: standard forecast or significant change
Winds: variable direction winds at 3 MPH (3 knots; 1.5 m/s)
Visibility: 6 or more miles (10+ km)
Ceiling: unknown
Clouds: missing
Weather: no significant weather forecast for this period
Text: TEMPO 2310/2318 11007KT
Forecast period: 1000 to 1800 UTC 23 January 2022
Forecast type: TEMPORARY: The following changes expected for less than half the time period
Winds: from the ESE (110 degrees) at 8 MPH (7 knots; 3.6 m/s)
Visibility: missing
Ceiling: unknown
Clouds: missing
Weather: no significant weather forecast for this period